Radford, Virginia
Current Conditions -  °F | °C
As of 6:15 PM on Friday 31 Oct 2014 (Local Time) from KPSK Reporting Station
Moderate Rain Moderate Rain  
Wind Chill: 41°   Ceiling: 2000
Heat Index: 45°   Visibility: 5mi
Dew Point: 44°   Wind: 7mph
Humidity: 97%   Direction: 250°WSW
Pressure: 29.84"   Gusts: NA
Location:  37.12°N, 80.59°W
Report Text: KPSK 312215Z AUTO 25006KT 5SM RA SCT011 BKN020 OVC027 07/07 A2984 RMK AO2 P0002 T00710066
Loading
Personal Weather Stations






























Interactive Weather Map New forecast layout! Learn more

10-Day Weather Forecast

Advertisements
Track Severe Weather on mobile